الصفحة الرئيسية
METAR-TAF:

METAR-TAF

مطار :

باستير, سانت كيتس ونيفيس

دائرة عرض: 17-18N, خط طول: 062-41W, ارتفاع: 48 متر

مراقبة الطقس الحالي

تاريخ ووقت الإصدار 5ساعات و 17 دقيقة قبل الساعة 01:00UTC
ريح 11 عقدة من الشرق
درجة الحرارة 28°درجة مئوية
الرطوبة 84%
ضغط 1016 hPa
الرؤية 10 كم أو أكثر
غيوم قليلة على ارتفاع 2000 قدم

METAR: TKPK 180100Z 08011KT 9999 FEW020 28/25 Q1016

زمن: 02:17 (06:17 UTC)

توقعات

تاريخ ووقت الإصدار 7ساعات و 17 دقيقة قبل الساعة 23:00UTC
التوقعات صالحة من18 الساعة 00 UTC إلى 18 الساعة 24 UTC
ريح 9 عقدة من الشرق
الرؤية 10 كم أو أكثر
غيوم متفرقة على ارتفاع 2000 قدم
نظرية الاحتمالات 30% :
مؤقت
من 18 الساعة 06 UTC إلى 18 الساعة 21 UTC
زخات من المطر,

TAF: TKPK 172300Z 1800/1824 08009KT 9999 SCT020 PROB30 TEMPO 1806/1821 SHRA

أرصاد الطقس والتوقعات من أكثر من 4000 مطار (تقارير الطقس للمطار METAR والتنبؤ بالطقس بالمطارTAF).

المحطات المتاحة هي النقط الصفراء والحمراء على الخريطة.

حرك المؤشر فوق النقطة لمعرفة اسم المحطة.

ثم انقر لمعرفة أرصاد وتوقعات الطقس.

لتغيير الخارطة: اضغط على الأزرار الخضراء مع رمز الصليب الأسود للتكبير. على الزر الأخضر مع شرطة للتصغير، أو على الأسهم الخضراء للخرائط المجاورة.


METAR-TAF: